Airport View

Enter AWOS ICAO identifier for current METAR.

ex. KFNL

KJZI 251605Z AUTO 20005KT 10SM BKN016 25/21 A2996 RMK AO2

25 Oct 2020 16:08

Frequency: 123.775

Phone: 843-559-3123

Other Area AWOS: KCHS - KLRO - KDYB - KMKS

TAF AMD KCHS 251527Z 2515/2612 17006KT P6SM SCT015 BKN050 TEMPO 2515/2517 BKN015 FM251800 15006KT P6SM VCSH SCT035 BKN050 FM260000 03003KT P6SM SCT250 FM260400 02005KT 6SM BR SCT003 BKN010